Flight Track Log - Related Links

Times and Time Zones

All times are in EDT time to prevent confusion due to time zone crossing. See the DAL6232 flight status page for this flight to view local times or setup timezone preferences in your user account.

Time Position Orientation Groundspeed Altitude Reporting Facility
EDT Latitude Longitude Course Direction KTS MPH feet Rate Location/Type
Sun 07:47:26 AM 44.8833 -63.5167 295° West 140 161 1,600  Level Moncton Center
Sun 07:48:26 AM 44.9000 -63.5667 295° West 190 219 4,000 2,250 Climbing Moncton Center
Sun 07:49:26 AM 44.9167 -63.6667 283° West 220 253 6,100 2,650 Climbing Moncton Center
Sun 07:50:26 AM 44.9000 -63.7667 257° West 230 265 9,300 2,550 Climbing Moncton Center
Sun 07:51:26 AM 44.9000 -63.8500 270° West 240 276 11,200 2,300 Climbing Moncton Center
Sun 07:52:26 AM 44.9000 -63.9500 270° West 270 311 13,900 2,350 Climbing Moncton Center
Sun 07:53:26 AM 44.9000 -64.0667 270° West 280 322 15,900 2,150 Climbing Moncton Center
Sun 07:54:26 AM 44.9000 -64.1833 270° West 300 345 18,200 1,800 Climbing Moncton Center
Sun 07:55:26 AM 44.9000 -64.3000 270° West 310 357 19,500 1,500 Climbing Moncton Center
Sun 07:56:26 AM 44.9000 -64.4167 270° West 320 368 21,200 1,600 Climbing Moncton Center
Sun 07:57:26 AM 44.9000 -64.5667 270° West 320 368 22,700 1,550 Climbing Moncton Center
Sun 07:58:26 AM 44.9000 -64.7000 270° West 330 380 24,300 1,550 Climbing Moncton Center
Sun 07:59:26 AM 44.9000 -64.8167 270° West 340 391 25,800 1,500 Climbing Moncton Center
Sun 08:00:26 AM 44.9000 -64.9667 270° West 340 391 27,300 1,350 Climbing Moncton Center
Sun 08:01:26 AM 44.9000 -65.0833 270° West 340 391 28,500 1,250 Climbing Moncton Center
Sun 08:02:26 AM 44.9000 -65.2167 270° West 340 391 29,800 1,100 Climbing Moncton Center
Sun 08:03:26 AM 44.9000 -65.3667 270° West 340 391 30,700 800 Climbing Moncton Center
Sun 08:04:26 AM 44.9000 -65.5000 270° West 340 391 31,400 750 Climbing Moncton Center
Sun 08:05:26 AM 44.9000 -65.6167 270° West 350 403 32,200 750 Climbing Moncton Center
Sun 08:06:26 AM 44.9000 -65.7667 270° West 350 403 32,900 650 Climbing Moncton Center
Sun 08:07:26 AM 44.9000 -65.9000 270° West 350 403 33,500 550 Climbing Moncton Center
Sun 08:08:26 AM 44.9000 -66.0500 270° West 360 414 34,000 250 Climbing Moncton Center
Sun 08:09:26 AM 44.8833 -66.1833 260° West 350 403 34,000  Level Moncton Center
Sun 08:10:26 AM 44.8833 -66.3333 270° West 340 391 34,000  Level Moncton Center
Sun 08:11:26 AM 44.8833 -66.4500 270° West 330 380 34,000  Level Moncton Center
Sun 08:12:26 AM 44.8833 -66.6000 270° West 330 380 34,000  Level Moncton Center
Sun 08:13:26 AM 44.8833 -66.7167 270° West 330 380 34,000  Level Moncton Center
Sun 08:14:26 AM 44.8833 -66.8333 270° West 340 391 34,000  Level Moncton Center
Sun 08:15:26 AM 44.8833 -66.9667 270° West 340 391 34,000  Level Moncton Center
Sun 08:16:26 AM 44.8667 -67.1167 261° West 340 391 34,000  Level Moncton Center
Sun 08:17:26 AM 44.8667 -67.2500 270° West 340 391 34,000  Level Moncton Center
Sun 08:18:26 AM 44.8667 -67.3667 270° West 340 391 34,000  Level Moncton Center
Sun 08:19:26 AM 44.8667 -67.5167 270° West 340 391 34,000  Level Moncton Center
Sun 08:20:26 AM 44.8500 -67.6500 260° West 340 391 34,000  Level Moncton Center
Sun 08:21:15 AM 44.8767 -67.7494 291° West 348 400 34,000  Level Boston Center
Sun 08:22:15 AM 44.8717 -67.8847 267° West 348 400 34,000  Level Boston Center
Sun 08:23:15 AM 44.8708 -68.0253 270° West 348 400 34,000  Level Boston Center
Sun 08:24:15 AM 44.8683 -68.1839 269° West 354 407 34,000  Level Boston Center
Sun 08:25:15 AM 44.8631 -68.3247 267° West 360 414 34,000  Level Boston Center
Sun 08:26:15 AM 44.8578 -68.4717 267° West 371 427 34,000  Level Boston Center
Sun 08:27:15 AM 44.8536 -68.5981 267° West 371 427 34,000  Level Boston Center
Sun 08:28:15 AM 44.8481 -68.7478 267° West 371 427 34,000  Level Boston Center
Sun 08:29:15 AM 44.8358 -68.8889 263° West 371 427 34,000  Level Boston Center
Sun 08:30:15 AM 44.7897 -69.0117 242° Southwest 354 407 34,000  Level Boston Center
Sun 08:31:15 AM 44.7431 -69.1286 241° Southwest 354 407 34,000  Level Boston Center
Sun 08:32:15 AM 44.6964 -69.2481 241° Southwest 354 407 34,000  Level Boston Center
Sun 08:33:15 AM 44.6497 -69.3672 241° Southwest 354 407 34,000  Level Boston Center
Sun 08:34:27 AM 44.5869 -69.5222 240° Southwest 354 407 34,000  Level Boston Center
Sun 08:35:27 AM 44.5378 -69.6411 240° Southwest 359 413 34,000  Level Boston Center
Sun 08:36:39 AM 44.4789 -69.7894 241° Southwest 359 413 34,000  Level Boston Center
Sun 08:37:39 AM 44.4294 -69.9139 241° Southwest 364 419 34,000  Level Boston Center
Sun 08:38:39 AM 44.3800 -70.0350 240° Southwest 364 419 34,000  Level Boston Center
Sun 08:39:39 AM 44.3303 -70.1589 241° Southwest 364 419 34,000  Level Boston Center
Sun 08:40:39 AM 44.2786 -70.2797 239° Southwest 364 419 34,000  Level Boston Center
Sun 08:41:39 AM 44.2308 -70.4003 241° Southwest 364 419 34,000  Level Boston Center
Sun 08:42:39 AM 44.1808 -70.5208 240° Southwest 364 419 34,000  Level Boston Center
Sun 08:43:39 AM 44.1328 -70.6408 241° Southwest 364 419 34,000  Level Boston Center
Sun 08:44:39 AM 44.0864 -70.7492 239° Southwest 364 419 34,000  Level Boston Center
Sun 08:45:39 AM 44.0358 -70.8661 239° Southwest 364 419 34,000  Level Boston Center
Sun 08:46:39 AM 43.9875 -70.9858 241° Southwest 364 419 34,000  Level Boston Center
Sun 08:47:39 AM 43.9369 -71.1022 239° Southwest 364 419 34,000  Level Boston Center
Sun 08:48:39 AM 43.8861 -71.2244 240° Southwest 364 419 34,000  Level Boston Center
Sun 08:49:39 AM 43.8372 -71.3406 240° Southwest 364 419 34,000  Level Boston Center
Sun 08:50:39 AM 43.7861 -71.4567 239° Southwest 364 419 34,000  Level Boston Center
Sun 08:51:39 AM 43.7372 -71.5808 241° Southwest 364 419 34,000  Level Boston Center
Sun 08:52:39 AM 43.6858 -71.6994 239° Southwest 364 419 34,000  Level Boston Center
Sun 08:53:39 AM 43.6344 -71.8206 240° Southwest 364 419 34,000  Level Boston Center
Sun 08:54:39 AM 43.5808 -71.9442 239° Southwest 369 425 34,000  Level Boston Center
Sun 08:55:39 AM 43.5294 -72.0650 240° Southwest 369 425 34,000  Level Boston Center
Sun 08:56:39 AM 43.4775 -72.1856 239° Southwest 369 425 34,000  Level Boston Center
Sun 08:57:39 AM 43.4236 -72.3058 238° Southwest 369 425 34,000 -700 Level Boston Center
Sun 08:58:39 AM 43.3694 -72.4258 238° Southwest 369 425 32,600 -1,409 Descending Boston Center
Sun 08:59:51 AM 43.3047 -72.5742 239° Southwest 369 425 30,900 -1,409 Descending Boston Center
Sun 09:00:51 AM 43.2547 -72.6911 240° Southwest 369 425 29,500 -1,377 Descending Boston Center
Sun 09:01:53 AM 43.2022 -72.8075 238° Southwest 369 425 28,100 -1,400 Descending Boston Center
Sun 09:02:51 AM 43.1517 -72.9181 238° Southwest 363 418 26,700 -1,525 Descending Boston Center
Sun 09:03:51 AM 43.1033 -73.0258 238° Southwest 349 402 25,100 -1,800 Descending Boston Center
Sun 09:04:51 AM 43.0547 -73.1333 238° Southwest 343 395 23,100 -2,000 Descending Boston Center
Sun 09:05:51 AM 43.0083 -73.2381 239° Southwest 338 389 21,100 -2,000 Descending Boston Center
Sun 09:06:51 AM 42.9636 -73.3394 239° Southwest 327 376 19,100 -1,050 Descending Boston Center
Sun 09:07:51 AM 42.9086 -73.4464 235° Southwest 327 376 19,000 -50 Descending Boston Center
Sun 09:08:51 AM 42.8661 -73.5447 239° Southwest 327 376 19,000  Level Boston Center
Sun 09:09:51 AM 42.8106 -73.6628 237° Southwest 333 383 19,000  Level Boston Center
Sun 09:10:51 AM 42.7678 -73.7608 239° Southwest 339 390 19,000  Level Boston Center
Sun 09:11:51 AM 42.6614 -73.7869 190° South 345 397 19,000  Level Boston Center
Sun 09:12:51 AM 42.5553 -73.7647 171° South 360 414 19,000  Level Boston Center
Sun 09:13:51 AM 42.4450 -73.7400 171° South 390 449 19,000 -250 Level Boston Center
Sun 09:14:51 AM 42.3369 -73.7181 171° South 390 449 18,500 -500 Descending Boston Center
Sun 09:15:51 AM 42.2306 -73.7272 184° South 381 438 18,000 -700 Descending Boston Center
Sun 09:16:51 AM 42.1325 -73.7419 186° South 376 433 17,100 -950 Descending Boston Center
Sun 09:17:51 AM 42.0383 -73.7594 188° South 376 433 16,100 -1,050 Descending Boston Center
Sun 09:18:51 AM 41.9236 -73.7794 187° South 376 433 15,000 -1,000 Descending Boston Center
Sun 09:19:51 AM 41.8317 -73.7969 188° South 376 433 14,100 -1,000 Descending Boston Center
Sun 09:20:51 AM 41.7356 -73.8117 187° South 340 391 13,000 -1,050 Descending Boston Center
Sun 09:21:51 AM 41.6561 -73.8267 188° South 304 350 12,000 -1,000 Descending Boston Center
Sun 09:22:51 AM 41.5767 -73.8497 192° South 293 337 11,000 -989 Descending Boston Center
Sun 09:23:22 AM 41.5333 -73.8500 180° South 287 330 10,500 -989 Descending New York TRACON
Sun 09:24:22 AM 41.4667 -73.8833 201° Southwest 282 325 9,500 -1,200 Descending New York TRACON
Sun 09:25:22 AM 41.3833 -73.8333 156° South 297 342 8,100 -1,400 Descending New York TRACON
Sun 09:26:22 AM 41.3167 -73.7833 151° Southeast 285 328 6,700 -1,500 Descending New York TRACON
Sun 09:27:22 AM 41.2500 -73.7500 159° South 284 327 5,100 -1,300 Descending New York TRACON
Sun 09:28:22 AM 41.1667 -73.7333 171° South 272 313 4,100 -550 Descending New York TRACON
Sun 09:29:22 AM 41.1000 -73.7333 180° South 272 313 4,000 -50 Descending New York TRACON
Sun 09:30:22 AM 41.0167 -73.7167 171° South 276 318 4,000  Level New York TRACON
Sun 09:31:16 AM 40.9500 -73.7167 180° South 275 316 4,000  Level New York TRACON
Sun 09:32:16 AM 40.8833 -73.7000 169° South 271 312 4,000  Level New York TRACON
Sun 09:33:11 AM 40.8000 -73.7000 180° South 274 315 4,000  Level New York TRACON
Sun 09:34:10 AM 40.7833 -73.7833 255° West 262 302 4,000  Level New York TRACON
Sun 09:35:10 AM 40.7833 -73.8833 270° West 249 287 4,000  Level New York TRACON
Sun 09:36:10 AM 40.7667 -73.9500 252° West 193 222 4,000  Level New York TRACON
Sun 09:37:10 AM 40.7500 -74.0167 252° West 194 223 4,000  Level New York TRACON
Sun 09:38:05 AM 40.7167 -74.0500 217° Southwest 197 227 4,000 -313 Level New York TRACON
Sun 09:39:05 AM 40.6667 -74.0500 180° South 206 237 3,400 -720 Descending New York TRACON
Sun 09:40:10 AM 40.6667 -73.9833 90° East 172 198 2,500 -432 Descending New York TRACON
Sun 09:41:10 AM 40.7000 -73.9500 37° Northeast 167 192 2,500 -300 Level New York TRACON
Sun 09:42:10 AM 40.7167 -73.9000 66° East 141 162 1,900 -600 Descending New York TRACON
Sun 09:43:10 AM 40.7333 -73.8500 66° East 148 170 1,300 -450 Descending New York TRACON
Sun 09:44:10 AM 40.7667 -73.8000 49° Northeast 173 199 1,000 -300 Descending New York TRACON

Login

Don't have an account? Register now (free) for customized features, flight alerts, and more!